Time;durP1;ratioP1;P1;durP2;ratioP2;P2;SDS_P1;SDS_P2;PMS_P1;PMS_P2;Temp;Humidity;BMP_temperature;BMP_pressure;BME280_temperature;BME280_humidity;BME280_pressure;Samples;Min_cycle;Max_cycle;Signal;HPM_P1;HPM_P2
2021/01/09 00:02:10;;;;;;;6.80;3.55;;;1.40;95.40;;;;;;5038632;28;20320;-83
2021/01/09 00:04:49;;;;;;;7.15;3.50;;;1.50;95.40;;;;;;5026477;28;20123;-82
2021/01/09 00:07:18;;;;;;;8.07;4.10;;;1.50;95.20;;;;;;5039553;28;20134;-84
2021/01/09 00:09:45;;;;;;;7.72;4.07;;;1.40;95.30;;;;;;5044607;28;20069;-83
2021/01/09 00:12:25;;;;;;;7.13;3.30;;;1.40;95.20;;;;;;5040787;28;20117;-82
2021/01/09 00:14:57;;;;;;;8.65;4.35;;;1.40;95.30;;;;;;5036831;28;20236;-85
2021/01/09 00:17:37;;;;;;;8.88;4.10;;;1.50;95.50;;;;;;5041268;28;20061;-84
2021/01/09 00:20:23;;;;;;;8.73;4.60;;;1.60;94.70;;;;;;5034396;28;20072;-83
2021/01/09 00:22:57;;;;;;;9.95;3.55;;;1.50;95.00;;;;;;5040533;28;20045;-84
2021/01/09 00:25:35;;;;;;;11.55;3.80;;;1.40;95.20;;;;;;5020638;28;20073;-82
2021/01/09 00:28:03;;;;;;;7.90;3.67;;;1.50;95.50;;;;;;5037790;28;20099;-81
2021/01/09 00:30:31;;;;;;;9.70;4.65;;;1.50;95.30;;;;;;5042173;28;20041;-82
2021/01/09 00:33:00;;;;;;;7.28;3.47;;;1.40;95.30;;;;;;5041345;28;20061;-82
2021/01/09 00:35:34;;;;;;;10.05;5.05;;;1.40;95.50;;;;;;5034818;28;20060;-82
2021/01/09 00:38:13;;;;;;;9.43;4.57;;;1.40;95.40;;;;;;5039438;28;20168;-82
2021/01/09 00:40:48;;;;;;;8.45;3.85;;;1.40;95.30;;;;;;5038895;28;20299;-83
2021/01/09 00:43:17;;;;;;;8.02;4.88;;;1.40;95.40;;;;;;5039650;28;20125;-81
2021/01/09 00:45:45;;;;;;;8.95;4.60;;;1.50;95.50;;;;;;5037483;28;20113;-82
2021/01/09 00:48:17;;;;;;;11.10;4.28;;;1.60;95.20;;;;;;5042527;28;20053;-81
2021/01/09 00:50:54;;;;;;;10.15;3.95;;;1.50;95.10;;;;;;5036766;28;20057;-83
2021/01/09 00:53:28;;;;;;;7.82;3.38;;;1.50;95.10;;;;;;5027496;28;20057;-82
2021/01/09 00:55:58;;;;;;;9.32;3.97;;;1.60;95.00;;;;;;5040456;28;20273;-83
2021/01/09 00:58:33;;;;;;;9.80;4.05;;;1.50;94.90;;;;;;5044215;28;20121;-82
2021/01/09 01:01:03;;;;;;;8.40;4.07;;;1.50;94.50;;;;;;5042906;28;20160;-83
2021/01/09 01:03:30;;;;;;;8.27;4.13;;;1.40;94.80;;;;;;5030910;28;20072;-83
2021/01/09 01:06:01;;;;;;;10.65;4.30;;;1.40;95.20;;;;;;5037908;28;20049;-84
2021/01/09 01:08:57;;;;;;;6.72;4.13;;;1.40;95.30;;;;;;5043877;28;20042;-82
2021/01/09 01:11:29;;;;;;;7.22;2.92;;;1.40;95.40;;;;;;5059063;28;20045;-82
2021/01/09 01:13:57;;;;;;;11.75;4.78;;;1.40;95.60;;;;;;5037034;28;20073;-81
2021/01/09 01:16:48;;;;;;;8.13;3.55;;;1.40;95.40;;;;;;5046761;28;20049;-82
2021/01/09 01:19:17;;;;;;;5.97;3.15;;;1.40;95.30;;;;;;5038360;28;20391;-80
2021/01/09 01:21:53;;;;;;;7.50;4.07;;;1.50;95.20;;;;;;5042174;28;20053;-81
2021/01/09 01:24:20;;;;;;;7.65;3.75;;;1.40;95.30;;;;;;5021592;28;20141;-81
2021/01/09 01:27:00;;;;;;;7.60;3.85;;;1.40;95.10;;;;;;5017558;28;20075;-83
2021/01/09 01:29:33;;;;;;;;;;;1.40;95.10;;;;;;5037385;28;20705;-82
2021/01/09 01:32:04;;;;;;;5.57;2.53;;;1.50;94.90;;;;;;5039621;28;20291;-82
2021/01/09 01:34:33;;;;;;;12.75;3.33;;;1.50;94.80;;;;;;5040823;28;20064;-81
2021/01/09 01:37:00;;;;;;;6.18;3.10;;;1.50;94.80;;;;;;5038516;28;20041;-81
2021/01/09 01:39:45;;;;;;;6.60;3.38;;;1.50;94.80;;;;;;5022361;28;20098;-81
2021/01/09 01:42:21;;;;;;;7.35;3.63;;;1.50;95.00;;;;;;5040865;28;20058;-83
2021/01/09 01:44:48;;;;;;;8.88;3.60;;;1.50;95.10;;;;;;5039137;28;20069;-82
2021/01/09 01:47:20;;;;;;;7.65;3.25;;;1.50;95.10;;;;;;5040603;28;20060;-79
2021/01/09 01:50:06;;;;;;;6.57;2.55;;;1.50;94.90;;;;;;5038282;28;20041;-81
2021/01/09 01:52:39;;;;;;;11.32;3.80;;;1.50;94.90;;;;;;5040152;28;20164;-83
2021/01/09 01:55:15;;;;;;;5.97;3.17;;;1.40;94.90;;;;;;5040754;28;20292;-82
2021/01/09 01:57:43;;;;;;;8.52;3.33;;;1.40;95.00;;;;;;5038263;28;20123;-81
2021/01/09 02:00:12;;;;;;;7.65;3.63;;;1.50;95.10;;;;;;5041595;28;20061;-83
2021/01/09 02:02:40;;;;;;;5.95;2.20;;;1.50;94.90;;;;;;5038685;28;20094;-83
2021/01/09 02:05:12;;;;;;;9.27;3.40;;;1.50;94.90;;;;;;5039884;28;20045;-81
2021/01/09 02:07:41;;;;;;;5.95;2.78;;;1.50;94.90;;;;;;5033686;28;20056;-84
2021/01/09 02:10:20;;;;;;;10.25;3.38;;;1.50;95.00;;;;;;5038869;28;20045;-83
2021/01/09 02:13:02;;;;;;;7.80;4.10;;;1.40;94.90;;;;;;5053199;28;20302;-82
2021/01/09 02:15:38;;;;;;;6.10;2.58;;;1.40;94.90;;;;;;5037124;28;20057;-80
2021/01/09 02:18:24;;;;;;;9.02;3.72;;;1.40;94.90;;;;;;5022264;28;20069;-83
2021/01/09 02:21:16;;;;;;;8.50;3.63;;;1.40;94.80;;;;;;5037406;28;20471;-82
2021/01/09 02:23:44;;;;;;;6.38;3.17;;;1.40;94.90;;;;;;5041151;28;20049;-83
2021/01/09 02:26:15;;;;;;;8.90;4.18;;;1.40;94.80;;;;;;5037970;28;20088;-82
2021/01/09 02:28:47;;;;;;;8.88;3.90;;;1.40;94.80;;;;;;5015015;28;20064;-84
2021/01/09 02:31:18;;;;;;;6.15;2.88;;;1.40;94.80;;;;;;5053507;28;20045;-83
2021/01/09 02:33:50;;;;;;;6.43;2.67;;;1.40;94.80;;;;;;5035725;28;20068;-84
2021/01/09 02:36:28;;;;;;;6.97;3.35;;;1.40;94.80;;;;;;5020173;28;20049;-80
2021/01/09 02:39:17;;;;;;;6.32;3.20;;;1.40;94.80;;;;;;5039819;28;20057;-83
2021/01/09 02:41:48;;;;;;;8.75;3.53;;;1.40;94.90;;;;;;5037817;28;20148;-81
2021/01/09 02:44:30;;;;;;;7.85;3.65;;;1.40;95.00;;;;;;5034508;28;20161;-83
2021/01/09 02:47:01;;;;;;;11.02;3.92;;;1.40;94.90;;;;;;5033910;28;20041;-82
2021/01/09 02:49:36;;;;;;;8.60;4.13;;;1.40;94.90;;;;;;5034791;28;20041;-82
2021/01/09 02:52:13;;;;;;;7.25;3.58;;;1.40;94.80;;;;;;5047535;28;20049;-85
2021/01/09 02:54:56;;;;;;;6.15;2.95;;;1.40;94.90;;;;;;5033809;28;20539;-83
2021/01/09 02:57:40;;;;;;;4.65;2.28;;;1.40;94.90;;;;;;5033720;28;20352;-83
2021/01/09 03:00:08;;;;;;;6.32;2.55;;;1.40;94.90;;;;;;5037215;28;20370;-84
2021/01/09 03:02:37;;;;;;;6.50;2.67;;;1.30;94.90;;;;;;5036360;28;20061;-84
2021/01/09 03:05:07;;;;;;;6.07;2.97;;;1.30;95.00;;;;;;5029371;28;20308;-85
2021/01/09 03:07:45;;;;;;;5.55;2.85;;;1.30;95.20;;;;;;5033080;28;20617;-83
2021/01/09 03:10:18;;;;;;;8.10;3.10;;;1.30;95.20;;;;;;5034838;28;20053;-84
2021/01/09 03:12:52;;;;;;;5.97;2.72;;;1.40;95.10;;;;;;5033631;28;20112;-84
2021/01/09 03:15:43;;;;;;;7.55;2.90;;;1.40;95.00;;;;;;5038311;28;20049;-82
2021/01/09 03:18:22;;;;;;;6.00;2.88;;;1.40;95.10;;;;;;5036328;28;20045;-87
2021/01/09 03:20:57;;;;;;;7.05;3.58;;;1.40;95.00;;;;;;5035532;28;20210;-80
2021/01/09 03:23:27;;;;;;;7.65;3.03;;;1.40;95.10;;;;;;5033249;28;20045;-86
2021/01/09 03:25:56;;;;;;;8.68;3.55;;;1.50;95.00;;;;;;5033636;28;20057;-82
2021/01/09 03:28:32;;;;;;;5.55;2.45;;;1.40;94.70;;;;;;5035521;28;20057;-82
2021/01/09 03:31:00;;;;;;;10.40;3.63;;;1.40;94.90;;;;;;5036040;28;20942;-84
2021/01/09 03:33:40;;;;;;;4.50;2.25;;;1.40;95.10;;;;;;5032886;28;20053;-82
2021/01/09 03:36:11;;;;;;;7.53;2.60;;;1.30;94.90;;;;;;5031369;28;20229;-83
2021/01/09 03:38:47;;;;;;;7.95;3.35;;;1.30;95.10;;;;;;5030088;28;20057;-83
2021/01/09 03:41:18;;;;;;;7.88;2.63;;;1.30;95.20;;;;;;5038642;28;20052;-82
2021/01/09 03:44:08;;;;;;;11.73;4.07;;;1.30;95.10;;;;;;5033296;28;20061;-81
2021/01/09 03:46:39;;;;;;;8.77;3.85;;;1.30;95.10;;;;;;5034251;28;20353;-83
2021/01/09 03:49:06;;;;;;;5.38;2.63;;;1.40;95.10;;;;;;5036590;28;20323;-82
2021/01/09 03:51:46;;;;;;;7.10;3.72;;;1.40;94.60;;;;;;5028725;28;20389;-83
2021/01/09 03:54:14;;;;;;;8.13;3.10;;;1.30;94.80;;;;;;5035179;28;20229;-83
2021/01/09 03:56:52;;;;;;;13.27;3.40;;;1.30;95.10;;;;;;5035362;28;20142;-82
2021/01/09 03:59:34;;;;;;;8.32;3.22;;;1.40;94.80;;;;;;5049950;28;20112;-84
2021/01/09 04:02:13;;;;;;;8.02;3.58;;;1.30;94.60;;;;;;5035833;28;20301;-81
2021/01/09 04:04:57;;;;;;;7.97;3.50;;;1.30;94.90;;;;;;5051948;28;20054;-84
2021/01/09 04:07:28;;;;;;;9.98;3.35;;;1.30;95.10;;;;;;5032675;28;20073;-83
2021/01/09 04:10:06;;;;;;;8.52;4.03;;;1.40;94.60;;;;;;5035141;28;20168;-82
2021/01/09 04:12:48;;;;;;;10.30;3.60;;;1.30;94.40;;;;;;5037414;28;20252;-81
2021/01/09 04:15:19;;;;;;;10.13;3.53;;;1.30;94.80;;;;;;5038397;28;20053;-85
2021/01/09 04:17:53;;;;;;;7.35;4.15;;;1.20;94.90;;;;;;5036572;28;20061;-84
2021/01/09 04:20:26;;;;;;;7.03;2.78;;;1.20;95.10;;;;;;5030466;28;20041;-83
2021/01/09 04:23:00;;;;;;;7.60;3.35;;;1.30;94.70;;;;;;5026497;28;20057;-84
2021/01/09 04:25:27;;;;;;;6.57;3.63;;;1.20;94.70;;;;;;5034135;28;20184;-84
2021/01/09 04:27:56;;;;;;;6.82;3.65;;;1.10;95.00;;;;;;5030194;28;20060;-83
2021/01/09 04:30:34;;;;;;;7.40;3.25;;;0.90;95.30;;;;;;5036322;28;20073;-81
2021/01/09 04:33:12;;;;;;;8.57;3.08;;;0.80;95.40;;;;;;5036706;28;20103;-81
2021/01/09 04:38:44;;;;;;;7.80;3.35;;;0.60;95.90;;;;;;5039023;28;20048;-84
2021/01/09 04:41:12;;;;;;;10.73;3.67;;;0.60;96.10;;;;;;5041308;28;20417;-82
2021/01/09 04:43:45;;;;;;;8.93;3.22;;;0.60;96.00;;;;;;5037056;28;20052;-84
2021/01/09 04:46:23;;;;;;;7.60;3.70;;;0.60;96.10;;;;;;5022995;28;20058;-82
2021/01/09 04:48:51;;;;;;;12.07;4.18;;;0.70;96.10;;;;;;5040678;28;20137;-81
2021/01/09 04:51:35;;;;;;;10.02;4.07;;;0.70;96.10;;;;;;5041008;28;20354;-84
2021/01/09 04:54:28;;;;;;;7.78;3.42;;;0.80;96.10;;;;;;5039315;28;20248;-83
2021/01/09 04:57:00;;;;;;;10.85;3.97;;;0.90;96.10;;;;;;5033143;28;20060;-84
2021/01/09 04:59:38;;;;;;;9.05;4.10;;;0.90;95.90;;;;;;5034655;28;20061;-83
2021/01/09 05:02:18;;;;;;;8.30;3.28;;;1.00;95.50;;;;;;5030490;28;20117;-84
2021/01/09 05:04:48;;;;;;;9.77;4.25;;;1.00;95.60;;;;;;5032692;28;20403;-84
2021/01/09 05:07:16;;;;;;;11.27;4.38;;;1.00;95.80;;;;;;5030540;28;20364;-83
2021/01/09 05:10:01;;;;;;;9.25;3.03;;;1.00;95.60;;;;;;5041600;28;20056;-84
2021/01/09 05:12:36;;;;;;;10.00;3.85;;;1.00;95.40;;;;;;5019941;28;20060;-80
2021/01/09 05:15:06;;;;;;;8.73;3.78;;;0.90;95.10;;;;;;5040454;28;20064;-87
2021/01/09 05:17:33;;;;;;;8.80;3.47;;;1.00;95.10;;;;;;5038606;28;20057;-81
2021/01/09 05:20:03;;;;;;;9.70;3.22;;;1.10;95.10;;;;;;5040635;28;20057;-84
2021/01/09 05:22:31;;;;;;;8.13;3.20;;;1.20;95.20;;;;;;5022198;28;20054;-82
2021/01/09 05:24:58;;;;;;;9.10;3.75;;;1.20;95.20;;;;;;5032126;28;20345;-84
2021/01/09 05:27:27;;;;;;;6.63;2.83;;;1.30;94.80;;;;;;5038934;28;20348;-83
2021/01/09 05:29:54;;;;;;;11.38;3.83;;;1.20;94.40;;;;;;5038420;28;20261;-83
2021/01/09 05:32:31;;;;;;;10.85;4.30;;;1.20;94.10;;;;;;5039618;28;20045;-81
2021/01/09 05:35:03;;;;;;;7.85;3.70;;;1.20;94.30;;;;;;5037492;28;20074;-81
2021/01/09 05:37:32;;;;;;;8.40;3.58;;;1.20;94.20;;;;;;5035206;28;20056;-81
2021/01/09 05:39:59;;;;;;;8.25;3.38;;;1.20;94.00;;;;;;5037304;28;20403;-82
2021/01/09 05:42:41;;;;;;;8.98;4.63;;;1.20;94.20;;;;;;5040037;28;20064;-82
2021/01/09 05:45:13;;;;;;;10.85;4.35;;;1.20;93.70;;;;;;5041694;28;20045;-81
2021/01/09 05:47:54;;;;;;;7.85;3.95;;;1.20;94.00;;;;;;5039496;28;20134;-85
2021/01/09 05:50:21;;;;;;;10.65;3.95;;;1.20;93.80;;;;;;5038029;28;20073;-83
2021/01/09 05:52:48;;;;;;;8.85;3.20;;;1.30;93.90;;;;;;5039483;28;20238;-85
2021/01/09 05:55:22;;;;;;;7.35;3.17;;;1.30;93.80;;;;;;5040148;28;20057;-84
2021/01/09 05:57:55;;;;;;;13.13;4.53;;;1.40;94.00;;;;;;5032161;28;20056;-84
2021/01/09 06:00:31;;;;;;;7.15;3.85;;;1.30;93.50;;;;;;5039873;28;20328;-83
2021/01/09 06:03:22;;;;;;;10.20;3.45;;;1.20;94.00;;;;;;5039442;28;20249;-82
2021/01/09 06:05:55;;;;;;;10.63;3.92;;;1.30;94.50;;;;;;5043065;28;20265;-83
2021/01/09 06:08:28;;;;;;;12.68;3.70;;;1.40;94.30;;;;;;5055699;28;20057;-83
2021/01/09 06:11:09;;;;;;;9.75;3.40;;;1.40;93.90;;;;;;5036539;28;20080;-83
2021/01/09 06:13:39;;;;;;;9.70;3.72;;;1.40;93.70;;;;;;5042043;28;20045;-83
2021/01/09 06:16:22;;;;;;;6.43;3.30;;;1.50;93.50;;;;;;5044173;28;20364;-83
2021/01/09 06:19:06;;;;;;;9.80;4.10;;;1.50;93.10;;;;;;5031452;28;20369;-84
2021/01/09 06:21:45;;;;;;;8.07;3.67;;;1.60;92.70;;;;;;5041558;28;20091;-84
2021/01/09 06:24:16;;;;;;;7.10;3.05;;;1.50;92.50;;;;;;5041052;28;20280;-83
2021/01/09 06:26:47;;;;;;;7.93;3.92;;;1.40;92.50;;;;;;5037562;28;20104;-82
2021/01/09 06:29:23;;;;;;;8.45;3.65;;;1.40;92.60;;;;;;5036953;28;20040;-81
2021/01/09 06:31:56;;;;;;;9.70;4.10;;;1.40;92.70;;;;;;5036820;28;20042;-81
2021/01/09 06:34:25;;;;;;;10.35;3.83;;;1.30;92.80;;;;;;5035210;28;20118;-81
2021/01/09 06:36:57;;;;;;;10.23;3.50;;;1.30;92.80;;;;;;5036931;28;20049;-81
2021/01/09 06:39:28;;;;;;;10.93;4.55;;;1.30;92.80;;;;;;5030994;28;20061;-80
2021/01/09 06:41:59;;;;;;;8.23;4.10;;;1.30;92.70;;;;;;5030540;28;20048;-82
2021/01/09 06:44:26;;;;;;;8.45;3.88;;;1.30;92.40;;;;;;5026837;28;20301;-83
2021/01/09 06:46:54;;;;;;;7.07;2.72;;;1.30;92.70;;;;;;5014875;28;20053;-81
2021/01/09 06:49:25;;;;;;;8.07;3.55;;;1.30;92.60;;;;;;5018618;28;20116;-81
2021/01/09 06:51:54;;;;;;;5.78;2.67;;;1.40;92.40;;;;;;5031495;28;20045;-81
2021/01/09 06:54:43;;;;;;;7.53;3.17;;;1.40;92.10;;;;;;5032431;28;20056;-81
2021/01/09 06:57:19;;;;;;;8.07;3.15;;;1.30;92.30;;;;;;5017239;28;20080;-83
2021/01/09 06:59:56;;;;;;;9.10;3.83;;;1.30;92.40;;;;;;5054306;28;20090;-82
2021/01/09 07:02:35;;;;;;;13.60;4.55;;;1.30;92.70;;;;;;5033826;28;20111;-81
2021/01/09 07:05:20;;;;;;;10.57;4.82;;;1.30;92.90;;;;;;5033403;28;20048;-83
2021/01/09 07:07:56;;;;;;;10.60;3.92;;;1.20;93.50;;;;;;5030999;28;20076;-81
2021/01/09 07:10:26;;;;;;;11.23;4.97;;;1.20;93.50;;;;;;5028588;28;20041;-83
2021/01/09 07:13:00;;;;;;;10.73;5.32;;;1.20;93.70;;;;;;5027935;28;20053;-80
2021/01/09 07:15:35;;;;;;;10.60;4.20;;;1.30;93.50;;;;;;5047992;28;20156;-83
2021/01/09 07:18:13;;;;;;;11.88;4.28;;;1.20;93.20;;;;;;5031918;28;20085;-82
2021/01/09 07:20:52;;;;;;;9.82;4.10;;;1.20;93.50;;;;;;5017505;28;20075;-81
2021/01/09 07:23:24;;;;;;;11.38;5.00;;;1.10;93.70;;;;;;5038201;28;20045;-81
2021/01/09 07:25:56;;;;;;;10.18;4.43;;;1.00;94.30;;;;;;5030122;28;20057;-82
2021/01/09 07:28:33;;;;;;;11.48;5.72;;;1.00;94.30;;;;;;5028100;28;20472;-82
2021/01/09 07:31:15;;;;;;;12.88;4.78;;;0.90;94.30;;;;;;5030609;28;20049;-83
2021/01/09 07:33:45;;;;;;;11.65;4.10;;;1.00;94.20;;;;;;5050826;28;20053;-81
2021/01/09 07:36:18;;;;;;;9.65;4.55;;;1.00;94.20;;;;;;5029223;28;20312;-81
2021/01/09 07:38:46;;;;;;;11.35;5.60;;;0.90;94.30;;;;;;5031475;28;20076;-84
2021/01/09 07:41:41;;;;;;;13.77;5.35;;;0.80;94.60;;;;;;5031983;28;20365;-83
2021/01/09 07:44:20;;;;;;;13.80;4.53;;;0.80;95.00;;;;;;5046911;28;20045;-81
2021/01/09 07:46:56;;;;;;;10.75;4.13;;;0.90;95.20;;;;;;5030436;28;20037;-82
2021/01/09 07:49:28;;;;;;;8.80;3.75;;;0.80;94.80;;;;;;5035788;28;20336;-81
2021/01/09 07:52:30;;;;;;;10.13;4.77;;;0.80;94.90;;;;;;5035491;28;20244;-81
2021/01/09 07:54:58;;;;;;;8.35;3.47;;;0.70;94.90;;;;;;5031280;28;20084;-84
2021/01/09 07:57:31;;;;;;;10.30;4.18;;;0.70;94.50;;;;;;5011576;28;20420;-82
2021/01/09 08:00:25;;;;;;;34.22;4.60;;;0.50;94.80;;;;;;5030258;28;20536;-82
2021/01/09 08:02:58;;;;;;;30.48;4.20;;;0.50;95.00;;;;;;5030219;28;20137;-81
2021/01/09 08:05:34;;;;;;;11.98;4.85;;;0.70;95.00;;;;;;5034463;28;20049;-81
2021/01/09 08:08:16;;;;;;;7.13;3.42;;;0.80;94.90;;;;;;5030677;28;20096;-81
2021/01/09 08:10:51;;;;;;;10.80;5.50;;;0.90;94.60;;;;;;5027642;28;20234;-82
2021/01/09 08:13:22;;;;;;;11.10;5.40;;;0.80;94.70;;;;;;5030766;28;20336;-80
2021/01/09 08:15:56;;;;;;;9.18;3.78;;;1.00;94.70;;;;;;5037153;28;20072;-80
2021/01/09 08:18:24;;;;;;;13.52;5.05;;;1.00;94.30;;;;;;5021048;28;20148;-81
2021/01/09 08:21:07;;;;;;;10.32;4.68;;;1.20;94.10;;;;;;5038003;28;20088;-84
2021/01/09 08:23:55;;;;;;;11.35;4.45;;;1.20;93.30;;;;;;5042200;28;20404;-80
2021/01/09 08:26:33;;;;;;;9.77;4.47;;;1.20;92.90;;;;;;5039761;28;20365;-84
2021/01/09 08:29:01;;;;;;;11.55;5.38;;;1.20;92.60;;;;;;5023253;28;20229;-83
2021/01/09 08:31:32;;;;;;;13.57;5.78;;;1.10;92.30;;;;;;5039894;28;20289;-82
2021/01/09 08:34:00;;;;;;;10.80;4.95;;;1.10;92.40;;;;;;5042256;28;20056;-82
2021/01/09 08:36:28;;;;;;;11.60;5.15;;;1.10;92.50;;;;;;5040695;28;20064;-80
2021/01/09 08:38:59;;;;;;;9.82;4.90;;;1.00;92.40;;;;;;5039571;28;20402;-81
2021/01/09 08:41:43;;;;;;;15.15;4.70;;;1.00;92.50;;;;;;5046317;28;20054;-84
2021/01/09 08:44:11;;;;;;;13.57;5.38;;;1.00;93.00;;;;;;5041604;28;20352;-81
2021/01/09 08:46:41;;;;;;;10.63;4.30;;;1.00;93.20;;;;;;5025557;28;20091;-82
2021/01/09 08:49:35;;;;;;;12.20;3.85;;;1.10;92.60;;;;;;5025964;28;20061;-84
2021/01/09 08:52:06;;;;;;;9.27;3.97;;;1.20;92.50;;;;;;5040561;28;20328;-82
2021/01/09 08:54:36;;;;;;;11.05;3.90;;;1.10;92.70;;;;;;5041770;28;20056;-84
2021/01/09 08:57:13;;;;;;;11.48;4.22;;;1.10;92.80;;;;;;5044483;28;20457;-83
2021/01/09 09:00:02;;;;;;;6.82;4.00;;;1.30;92.50;;;;;;5039542;28;20054;-83
2021/01/09 09:02:51;;;;;;;12.93;5.80;;;1.20;92.20;;;;;;5052876;28;20562;-81
2021/01/09 09:05:24;;;;;;;9.88;4.32;;;1.20;91.50;;;;;;5027982;28;20057;-81
2021/01/09 09:07:56;;;;;;;9.95;4.20;;;1.20;91.60;;;;;;5044239;28;20064;-80
2021/01/09 09:10:25;;;;;;;10.73;4.78;;;1.20;91.40;;;;;;5042463;28;20065;-80
2021/01/09 09:12:53;;;;;;;13.65;4.88;;;1.20;91.20;;;;;;5041066;28;20049;-84
2021/01/09 09:15:28;;;;;;;11.60;4.45;;;1.20;91.10;;;;;;5024577;28;20061;-83
2021/01/09 09:17:59;;;;;;;10.25;4.32;;;1.10;90.40;;;;;;5021518;28;20053;-81
2021/01/09 09:20:36;;;;;;;7.75;3.70;;;1.20;91.10;;;;;;5041569;28;20057;-83
2021/01/09 09:23:24;;;;;;;21.80;14.05;;;1.90;90.50;;;;;;5022332;28;20050;-81
2021/01/09 09:26:07;;;;;;;15.55;6.15;;;2.40;88.20;;;;;;5036718;28;20070;-80
2021/01/09 09:28:50;;;;;;;10.05;4.47;;;2.80;87.10;;;;;;5040918;28;20280;-82
2021/01/09 09:31:28;;;;;;;16.23;7.85;;;2.70;86.50;;;;;;5040117;28;20073;-81
2021/01/09 09:34:12;;;;;;;9.30;4.50;;;2.60;86.10;;;;;;5040407;28;20050;-81
2021/01/09 09:37:01;;;;;;;14.80;6.07;;;2.40;86.30;;;;;;5038867;28;20053;-81
2021/01/09 09:39:34;;;;;;;8.93;4.45;;;2.10;87.40;;;;;;5042644;28;20045;-83
2021/01/09 09:42:08;;;;;;;10.13;3.90;;;1.80;87.90;;;;;;5043597;28;20115;-83
2021/01/09 09:44:40;;;;;;;9.43;4.63;;;1.70;89.00;;;;;;5047724;28;20121;-83
2021/01/09 09:47:27;;;;;;;12.23;4.72;;;1.90;87.90;;;;;;5043137;28;20321;-82
2021/01/09 09:50:03;;;;;;;10.82;5.43;;;1.80;87.80;;;;;;5037693;28;20061;-82
2021/01/09 09:52:41;;;;;;;11.93;5.50;;;2.00;88.00;;;;;;5027298;28;20264;-81
2021/01/09 09:55:14;;;;;;;8.23;4.13;;;2.00;87.50;;;;;;5042613;28;20240;-82
2021/01/09 09:57:42;;;;;;;7.85;4.15;;;2.10;87.40;;;;;;5053079;28;20053;-83
2021/01/09 10:00:12;;;;;;;10.07;4.38;;;2.10;87.40;;;;;;5046338;28;20176;-80
2021/01/09 10:03:03;;;;;;;10.70;4.18;;;2.20;87.20;;;;;;5043134;28;20064;-81
2021/01/09 10:05:49;;;;;;;10.73;4.97;;;2.00;87.40;;;;;;5046527;28;20053;-81
2021/01/09 10:08:22;;;;;;;11.32;4.50;;;1.80;87.80;;;;;;5025851;28;20065;-81
2021/01/09 10:10:52;;;;;;;11.55;5.20;;;2.00;87.90;;;;;;5037566;28;20368;-84
2021/01/09 10:13:34;;;;;;;12.02;4.90;;;2.20;88.00;;;;;;5006148;28;20053;-82
2021/01/09 10:16:10;;;;;;;10.15;4.32;;;2.40;85.70;;;;;;5037042;28;20086;-81
2021/01/09 10:18:40;;;;;;;9.90;5.05;;;2.70;85.40;;;;;;5037660;28;20093;-81
2021/01/09 10:21:19;;;;;;;10.43;4.40;;;3.00;84.70;;;;;;5040430;28;20041;-81
2021/01/09 10:23:56;;;;;;;8.90;3.97;;;3.00;83.10;;;;;;5037964;28;20053;-81
2021/01/09 10:26:40;;;;;;;13.00;6.40;;;3.20;84.30;;;;;;5057740;28;20460;-81
2021/01/09 10:29:16;;;;;;;10.77;5.13;;;3.70;82.40;;;;;;5041615;28;20057;-81
2021/01/09 10:31:45;;;;;;;9.50;4.40;;;3.80;81.70;;;;;;5040757;28;20059;-81
2021/01/09 10:34:30;;;;;;;8.45;4.22;;;4.20;79.80;;;;;;5039383;28;20120;-82
2021/01/09 10:36:58;;;;;;;8.13;4.15;;;5.40;77.60;;;;;;5038306;28;20080;-80
2021/01/09 10:39:31;;;;;;;11.30;4.13;;;6.50;74.40;;;;;;5041723;28;20414;-80
2021/01/09 10:42:02;;;;;;;11.45;6.22;;;7.40;70.70;;;;;;5015343;28;20057;-83
2021/01/09 10:44:31;;;;;;;12.20;4.47;;;8.40;66.70;;;;;;5038044;28;20095;-83
2021/01/09 10:47:07;;;;;;;9.25;4.45;;;8.90;62.20;;;;;;5034954;28;20048;-81
2021/01/09 10:49:52;;;;;;;11.05;4.60;;;9.30;59.90;;;;;;5037753;28;20285;-81
2021/01/09 10:52:28;;;;;;;12.20;5.57;;;9.10;59.80;;;;;;5033215;28;20053;-80
2021/01/09 10:55:05;;;;;;;12.27;5.82;;;8.40;61.20;;;;;;5028374;28;20061;-82
2021/01/09 10:57:40;;;;;;;10.38;5.38;;;8.00;62.50;;;;;;5031184;28;20065;-81
2021/01/09 11:00:10;;;;;;;10.95;5.53;;;7.40;64.50;;;;;;5019826;28;20415;-81
2021/01/09 11:02:38;;;;;;;10.77;4.97;;;6.90;65.90;;;;;;5033936;28;20061;-83
2021/01/09 11:05:06;;;;;;;14.32;8.27;;;6.40;68.80;;;;;;5018567;28;20363;-80
2021/01/09 11:07:36;;;;;;;14.05;6.68;;;6.20;67.80;;;;;;5035717;28;20064;-81
2021/01/09 11:10:06;;;;;;;9.38;4.85;;;5.80;69.30;;;;;;5032430;28;20073;-81
2021/01/09 11:12:43;;;;;;;8.40;4.07;;;5.40;72.10;;;;;;5021673;28;20041;-82
2021/01/09 11:15:19;;;;;;;9.10;4.95;;;5.00;73.70;;;;;;5034091;28;20061;-81
2021/01/09 11:17:52;;;;;;;9.25;4.72;;;4.90;72.90;;;;;;5049330;28;20053;-81
2021/01/09 11:20:44;;;;;;;12.23;4.13;;;5.10;73.20;;;;;;5025223;28;20052;-80
2021/01/09 11:23:25;;;;;;;9.88;3.85;;;5.30;73.20;;;;;;5029383;28;20053;-80
2021/01/09 11:26:18;;;;;;;11.00;4.85;;;5.20;73.00;;;;;;5032773;28;20053;-80
2021/01/09 11:29:07;;;;;;;;;;;;;;;;;;;;;
2021/01/09 11:31:36;;;;;;;10.75;4.57;;;5.00;73.50;;;;;;5017700;28;20064;-82
2021/01/09 11:34:12;;;;;;;10.68;4.32;;;5.00;74.10;;;;;;5036836;28;20252;-83
2021/01/09 11:36:51;;;;;;;9.63;4.25;;;4.70;74.70;;;;;;5026335;28;20053;-81
2021/01/09 11:39:21;;;;;;;10.20;3.83;;;4.50;75.50;;;;;;5032182;28;20050;-81
2021/01/09 11:41:56;;;;;;;10.77;4.13;;;4.30;75.20;;;;;;5043382;28;20328;-81
2021/01/09 11:44:27;;;;;;;10.23;4.80;;;3.90;75.80;;;;;;5048522;28;20079;-80
2021/01/09 11:46:56;;;;;;;11.27;4.78;;;4.10;76.70;;;;;;5031167;28;20077;-80
2021/01/09 11:49:27;;;;;;;;;;;4.10;77.90;;;;;;5032949;28;20065;-83
2021/01/09 11:52:09;;;;;;;9.60;4.30;;;4.10;78.00;;;;;;5037526;28;19931;-81
2021/01/09 11:54:55;;;;;;;9.52;3.42;;;3.90;77.50;;;;;;5036983;28;20057;-81
2021/01/09 11:57:28;;;;;;;10.27;4.15;;;3.90;77.70;;;;;;5041382;28;20264;-82
2021/01/09 11:59:55;;;;;;;9.68;3.17;;;4.30;74.60;;;;;;5028228;28;20373;-80
2021/01/09 12:02:28;;;;;;;6.95;3.03;;;4.20;75.70;;;;;;5031974;28;20134;-80
2021/01/09 12:04:57;;;;;;;10.27;4.15;;;4.20;75.20;;;;;;5051952;28;20056;-82
2021/01/09 12:07:29;;;;;;;9.18;3.38;;;4.10;75.30;;;;;;5032335;28;20068;-83
2021/01/09 12:10:19;;;;;;;;;;;;;;;;;;;;;
2021/01/09 12:13:01;;;;;;;7.63;3.33;;;3.90;75.50;;;;;;5017797;28;20097;-82
2021/01/09 12:15:42;;;;;;;9.45;3.45;;;3.70;75.80;;;;;;5024433;28;20080;-83
2021/01/09 12:18:13;;;;;;;6.72;2.70;;;3.60;74.60;;;;;;5039075;28;20049;-81
2021/01/09 12:20:42;;;;;;;4.88;2.35;;;3.40;75.20;;;;;;5046617;28;20218;-83
2021/01/09 12:23:18;;;;;;;6.18;3.13;;;3.40;75.50;;;;;;5034656;28;20068;-81
2021/01/09 12:25:56;;;;;;;5.43;2.22;;;3.40;75.20;;;;;;5048378;28;20057;-82
2021/01/09 12:28:24;;;;;;;6.88;2.42;;;3.30;75.70;;;;;;5053933;28;20257;-85
2021/01/09 12:30:52;;;;;;;5.70;2.85;;;3.20;75.40;;;;;;5034616;28;20076;-82
2021/01/09 12:33:33;;;;;;;9.05;3.05;;;3.20;75.70;;;;;;5039125;28;20084;-81
2021/01/09 12:36:02;;;;;;;9.05;3.40;;;3.20;75.70;;;;;;5049868;28;20060;-83
2021/01/09 12:38:30;;;;;;;7.15;3.33;;;3.20;76.40;;;;;;5053983;28;20076;-81
2021/01/09 12:41:08;;;;;;;8.75;3.88;;;3.10;77.00;;;;;;5025033;28;20049;-80
2021/01/09 12:43:39;;;;;;;9.70;3.30;;;3.10;77.10;;;;;;5037233;28;20542;-80
2021/01/09 12:46:07;;;;;;;9.02;4.05;;;3.10;77.00;;;;;;5061731;28;20052;-81
2021/01/09 12:48:36;;;;;;;8.15;3.53;;;3.00;76.90;;;;;;5045586;28;20143;-81
2021/01/09 12:51:06;;;;;;;6.60;3.47;;;3.00;76.60;;;;;;5026421;28;20050;-81
2021/01/09 12:53:34;;;;;;;5.13;2.47;;;2.90;76.50;;;;;;5037743;28;20057;-81
2021/01/09 12:56:15;;;;;;;7.40;2.78;;;2.90;76.70;;;;;;5039219;28;20056;-81
2021/01/09 12:58:55;;;;;;;7.47;4.10;;;2.90;76.80;;;;;;5019485;28;20061;-83
2021/01/09 13:01:30;;;;;;;7.15;3.38;;;2.80;76.90;;;;;;5039298;28;20061;-84
2021/01/09 13:04:05;;;;;;;7.43;3.72;;;2.90;77.50;;;;;;5043202;28;20053;-81
2021/01/09 13:06:36;;;;;;;;;;;2.90;77.20;;;;;;5022913;28;20049;-81
2021/01/09 13:09:31;;;;;;;7.57;3.22;;;2.80;77.60;;;;;;5039036;28;19923;-81
2021/01/09 13:12:06;;;;;;;7.47;2.72;;;2.80;77.60;;;;;;5048119;28;20061;-80
2021/01/09 13:14:41;;;;;;;7.80;3.30;;;2.80;78.00;;;;;;5042981;28;20057;-82
2021/01/09 13:17:12;;;;;;;7.07;3.17;;;2.80;78.10;;;;;;5048506;28;20410;-80
2021/01/09 13:19:41;;;;;;;7.15;3.53;;;2.80;77.30;;;;;;5041586;28;20068;-81
2021/01/09 13:22:36;;;;;;;11.65;5.55;;;2.80;77.30;;;;;;5052961;28;20237;-80
2021/01/09 13:25:06;;;;;;;11.35;4.72;;;2.70;76.90;;;;;;5037108;28;20295;-82
2021/01/09 13:27:48;;;;;;;12.70;5.20;;;2.70;76.90;;;;;;5043185;28;20061;-80
2021/01/09 13:30:20;;;;;;;16.05;7.93;;;2.80;77.60;;;;;;5056269;28;20061;-81
2021/01/09 13:32:48;;;;;;;10.90;6.05;;;2.80;78.80;;;;;;5023276;28;20064;-84
2021/01/09 13:35:28;;;;;;;14.55;7.22;;;2.90;78.80;;;;;;5038318;28;20127;-81
2021/01/09 13:37:57;;;;;;;10.02;4.75;;;2.70;78.90;;;;;;5041565;28;20060;-81
2021/01/09 13:40:25;;;;;;;11.73;6.18;;;2.70;80.60;;;;;;5038572;28;20067;-80